createdAt,value
2023-02-11T00:01:31.608Z,98967.97
2023-02-11T00:04:00.137Z,98962.53
2023-02-11T00:06:30.592Z,98962.00
2023-02-11T00:08:58.196Z,98956.41
2023-02-11T00:11:30.441Z,98960.78
2023-02-11T00:14:00.625Z,98949.63
2023-02-11T00:16:29.522Z,98941.56
2023-02-11T00:18:57.249Z,98947.44
2023-02-11T00:21:26.758Z,98944.00
2023-02-11T00:23:57.110Z,98933.16
2023-02-11T00:26:31.461Z,98940.09
2023-02-11T00:28:59.521Z,98936.28
2023-02-11T00:31:27.833Z,98933.66
2023-02-11T00:33:55.738Z,98924.56
2023-02-11T00:36:27.801Z,98928.59
2023-02-11T00:38:57.164Z,98931.75
2023-02-11T00:41:25.152Z,98919.50
2023-02-11T00:43:53.183Z,98921.16
2023-02-11T00:46:21.391Z,98922.16
2023-02-11T00:48:49.339Z,98912.16
2023-02-11T00:51:16.520Z,98907.16
2023-02-11T00:53:43.914Z,98903.34
2023-02-11T00:56:11.250Z,98905.69
2023-02-11T00:58:38.658Z,98904.97
2023-02-11T01:01:06.459Z,98909.28
2023-02-11T01:03:36.130Z,98897.59
2023-02-11T01:06:03.510Z,98900.16
2023-02-11T01:08:30.986Z,98893.94
2023-02-11T01:11:04.525Z,98877.69
2023-02-11T01:13:35.735Z,98880.19
2023-02-11T01:16:07.361Z,98868.13
2023-02-11T01:18:35.018Z,98866.13
2023-02-11T01:21:02.267Z,98852.78
2023-02-11T01:23:29.471Z,98853.63
2023-02-11T01:25:57.439Z,98847.38
2023-02-11T01:28:28.760Z,98839.06
2023-02-11T01:30:57.105Z,98842.56
2023-02-11T01:33:24.934Z,98827.84
2023-02-11T01:35:52.635Z,98809.19
2023-02-11T01:38:24.928Z,98812.84
2023-02-11T01:40:57.281Z,98803.28
2023-02-11T01:43:26.635Z,98801.66
2023-02-11T01:46:02.026Z,98801.69
2023-02-11T01:48:38.259Z,98798.28
2023-02-11T01:51:22.199Z,98803.22
2023-02-11T01:54:09.628Z,98802.84
2023-02-11T01:57:01.306Z,98795.69
2023-02-11T01:59:41.083Z,98805.63
2023-02-11T02:02:12.759Z,98787.97
2023-02-11T02:04:55.385Z,98793.94
2023-02-11T02:07:49.619Z,98783.09
2023-02-11T02:10:23.113Z,98777.38
2023-02-11T02:12:50.447Z,98777.50
2023-02-11T02:15:29.922Z,98769.19
2023-02-11T02:18:09.809Z,98767.97
2023-02-11T02:21:13.869Z,98762.25
2023-02-11T02:23:52.480Z,98766.72
2023-02-11T02:27:04.477Z,98767.09
2023-02-11T02:30:32.312Z,98761.91
2023-02-11T02:33:21.635Z,98769.91
2023-02-11T02:36:24.033Z,98757.53
2023-02-11T02:39:29.503Z,98750.72
2023-02-11T02:41:57.288Z,98753.25
2023-02-11T02:44:24.770Z,98755.56
2023-02-11T02:46:52.295Z,98752.28
2023-02-11T02:49:19.517Z,98755.75
2023-02-11T02:52:31.105Z,98751.28
2023-02-11T02:55:04.728Z,98748.63
2023-02-11T02:58:00.520Z,98738.13
2023-02-11T03:00:41.924Z,98729.88
2023-02-11T03:03:57.632Z,98727.63
2023-02-11T03:06:46.745Z,98711.25
2023-02-11T03:09:30.170Z,98696.03
2023-02-11T03:11:57.580Z,98694.47
2023-02-11T03:14:27.878Z,98701.72
2023-02-11T03:16:59.373Z,98696.63
2023-02-11T03:19:44.562Z,98690.56
2023-02-11T03:22:26.512Z,98690.31
2023-02-11T03:24:56.216Z,98688.03
2023-02-11T03:28:13.947Z,98690.41
2023-02-11T03:31:00.066Z,98679.69
2023-02-11T03:33:48.198Z,98674.44
2023-02-11T03:36:26.848Z,98681.53
2023-02-11T03:38:59.920Z,98686.25
2023-02-11T03:41:27.660Z,98689.94
2023-02-11T03:43:58.336Z,98677.09
2023-02-11T03:46:36.857Z,98679.09
2023-02-11T03:49:11.266Z,98683.72
2023-02-11T03:51:39.252Z,98688.00
2023-02-11T03:54:14.742Z,98687.78
2023-02-11T03:56:56.951Z,98690.19
2023-02-11T03:59:24.647Z,98694.84
2023-02-11T04:01:52.608Z,98695.25
2023-02-11T04:04:20.338Z,98694.22
2023-02-11T04:06:47.669Z,98687.09
2023-02-11T04:09:15.545Z,98691.91
2023-02-11T04:11:42.795Z,98684.41
2023-02-11T04:14:09.989Z,98695.91
2023-02-11T04:16:37.454Z,98674.84
2023-02-11T04:19:05.138Z,98672.00
2023-02-11T04:21:32.421Z,98663.97
2023-02-11T04:23:59.675Z,98654.72
2023-02-11T04:26:26.932Z,98635.91
2023-02-11T04:28:54.072Z,98640.72
2023-02-11T04:31:21.396Z,98626.78
2023-02-11T04:33:48.682Z,98608.84
2023-02-11T04:36:15.891Z,98604.91
2023-02-11T04:38:43.145Z,98603.03
2023-02-11T04:41:10.283Z,98596.75
2023-02-11T04:43:37.480Z,98605.75
2023-02-11T04:46:04.862Z,98598.47
2023-02-11T04:48:32.237Z,98598.44
2023-02-11T04:50:59.516Z,98598.53
2023-02-11T04:53:26.851Z,98592.44
2023-02-11T04:55:54.214Z,98579.63
2023-02-11T04:58:21.826Z,98574.81
2023-02-11T05:00:49.095Z,98584.19
2023-02-11T05:03:17.195Z,98598.19
2023-02-11T05:05:44.628Z,98591.78
2023-02-11T05:08:12.660Z,98597.91
2023-02-11T05:10:39.974Z,98583.88
2023-02-11T05:13:07.163Z,98582.38
2023-02-11T05:15:34.597Z,98585.59
2023-02-11T05:18:01.905Z,98587.16
2023-02-11T05:20:29.406Z,98593.97
2023-02-11T05:22:56.767Z,98606.13
2023-02-11T05:25:24.034Z,98599.00
2023-02-11T05:27:51.270Z,98599.66
2023-02-11T05:30:18.605Z,98604.22
2023-02-11T05:32:45.844Z,98609.31
2023-02-11T05:35:12.976Z,98612.88
2023-02-11T05:37:40.274Z,98608.47
2023-02-11T05:40:08.200Z,98612.50
2023-02-11T05:42:35.634Z,98615.47
2023-02-11T05:45:02.956Z,98607.84
2023-02-11T05:47:30.300Z,98588.81
2023-02-11T05:49:57.481Z,98576.91
2023-02-11T05:52:25.113Z,98573.78
2023-02-11T05:54:52.335Z,98579.84
2023-02-11T05:57:20.279Z,98586.50
2023-02-11T05:59:47.575Z,98595.41
2023-02-11T06:02:14.865Z,98598.78
2023-02-11T06:04:42.269Z,98589.16
2023-02-11T06:07:09.463Z,98582.50
2023-02-11T06:09:37.877Z,98591.75
2023-02-11T06:12:05.476Z,98595.63
2023-02-11T06:14:34.389Z,98596.78
2023-02-11T06:17:02.084Z,98601.81
2023-02-11T06:19:29.418Z,98617.53
2023-02-11T06:21:57.744Z,98620.16
2023-02-11T06:24:48.130Z,98624.38
2023-02-11T06:27:12.570Z,98620.66
2023-02-11T06:29:39.815Z,98615.66
2023-02-11T06:32:10.078Z,98614.47
2023-02-11T06:34:43.404Z,98615.31
2023-02-11T06:37:10.600Z,98606.94
2023-02-11T06:39:38.345Z,98603.50
2023-02-11T06:42:07.913Z,98600.28
2023-02-11T06:44:35.263Z,98581.81
2023-02-11T06:47:02.471Z,98583.91
2023-02-11T06:49:29.845Z,98581.59
2023-02-11T06:51:57.020Z,98588.66
2023-02-11T06:54:24.544Z,98584.06
2023-02-11T06:56:51.809Z,98591.97
2023-02-11T06:59:20.958Z,98569.91
2023-02-11T07:01:48.690Z,98577.19
2023-02-11T07:04:16.126Z,98575.94
2023-02-11T07:06:43.395Z,98578.19
2023-02-11T07:09:10.753Z,98575.28
2023-02-11T07:11:37.913Z,98574.06
2023-02-11T07:14:08.680Z,98564.66
2023-02-11T07:16:36.397Z,98550.88
2023-02-11T07:19:03.728Z,98557.94
2023-02-11T07:21:31.223Z,98555.09
2023-02-11T07:23:58.495Z,98560.16
2023-02-11T07:26:29.229Z,98569.44
2023-02-11T07:28:56.418Z,98578.75
2023-02-11T07:31:27.249Z,98583.69
2023-02-11T07:33:58.032Z,98590.84
2023-02-11T07:36:25.971Z,98592.19
2023-02-11T07:38:53.323Z,98591.38
2023-02-11T07:41:23.467Z,98593.00
2023-02-11T07:43:52.888Z,98590.16
2023-02-11T07:46:23.488Z,98585.59
2023-02-11T07:48:51.058Z,98594.03
2023-02-11T07:51:30.829Z,98589.00
2023-02-11T07:54:00.441Z,98597.50
2023-02-11T07:56:28.988Z,98603.81
2023-02-11T07:58:59.893Z,98593.09
2023-02-11T08:01:28.564Z,98584.66
2023-02-11T08:03:58.611Z,98571.31
2023-02-11T08:06:29.587Z,98570.22
2023-02-11T08:08:57.184Z,98581.88
2023-02-11T08:11:28.256Z,98585.97
2023-02-11T08:13:56.919Z,98590.06
2023-02-11T08:16:33.024Z,98591.16
2023-02-11T08:19:04.633Z,98568.66
2023-02-11T08:21:32.061Z,98568.53
2023-02-11T08:23:59.364Z,98563.22
2023-02-11T08:26:29.923Z,98562.06
2023-02-11T08:28:58.988Z,98564.41
2023-02-11T08:31:34.921Z,98558.47
2023-02-11T08:34:02.647Z,98551.50
2023-02-11T08:36:34.410Z,98553.66
2023-02-11T08:39:18.161Z,98548.47
2023-02-11T08:41:49.172Z,98556.13
2023-02-11T08:44:18.687Z,98556.25
2023-02-11T08:46:46.406Z,98551.34
2023-02-11T08:49:14.302Z,98549.19
2023-02-11T08:51:41.648Z,98555.00
2023-02-11T08:54:10.134Z,98561.69
2023-02-11T08:56:38.810Z,98569.06
2023-02-11T08:59:07.147Z,98563.63
2023-02-11T09:01:35.621Z,98559.81
2023-02-11T09:04:03.054Z,98570.66
2023-02-11T09:06:30.630Z,98589.97
2023-02-11T09:08:58.533Z,98579.50
2023-02-11T09:11:34.541Z,98586.88
2023-02-11T09:14:04.001Z,98580.59
2023-02-11T09:16:36.387Z,98576.97
2023-02-11T09:19:06.111Z,98565.09
2023-02-11T09:21:33.506Z,98566.94
2023-02-11T09:24:00.986Z,98565.91
2023-02-11T09:26:31.548Z,98566.94
2023-02-11T09:29:00.453Z,98556.63
2023-02-11T09:31:31.521Z,98548.38
2023-02-11T09:34:02.920Z,98541.22
2023-02-11T09:36:35.304Z,98550.16
2023-02-11T09:39:04.985Z,98545.72
2023-02-11T09:41:59.313Z,98543.34
2023-02-11T09:44:32.458Z,98544.09
2023-02-11T09:47:16.212Z,98553.50
2023-02-11T09:49:50.185Z,98552.31
2023-02-11T09:52:36.502Z,98556.03
2023-02-11T09:55:21.150Z,98553.81
2023-02-11T09:57:48.815Z,98569.13
2023-02-11T10:01:12.311Z,98581.84
2023-02-11T10:03:46.288Z,98574.97
2023-02-11T10:06:41.059Z,98565.88
2023-02-11T10:09:55.629Z,98574.53
2023-02-11T10:12:44.381Z,98571.47
2023-02-11T10:15:31.090Z,98553.00
2023-02-11T10:18:33.928Z,98560.22
2023-02-11T10:21:32.933Z,98551.53
2023-02-11T10:24:10.042Z,98544.75
2023-02-11T10:26:39.897Z,98539.72
2023-02-11T10:29:31.035Z,98546.47
2023-02-11T10:32:01.003Z,98541.53
2023-02-11T10:34:28.230Z,98527.44
2023-02-11T10:36:55.437Z,98517.38
2023-02-11T10:39:27.082Z,98516.44
2023-02-11T10:42:06.847Z,98512.38
2023-02-11T10:44:41.875Z,98502.31
2023-02-11T10:47:22.226Z,98503.16
2023-02-11T10:49:50.076Z,98509.75
2023-02-11T10:52:30.679Z,98494.97
2023-02-11T10:55:21.916Z,98501.22
2023-02-11T10:58:03.021Z,98488.31
2023-02-11T11:00:43.803Z,98468.38
2023-02-11T11:03:20.068Z,98462.00
2023-02-11T11:05:57.386Z,98452.81
2023-02-11T11:08:47.598Z,98445.91
2023-02-11T11:11:23.847Z,98429.63
2023-02-11T11:13:58.176Z,98414.47
2023-02-11T11:16:35.988Z,98421.75
2023-02-11T11:19:09.337Z,98407.09
2023-02-11T11:21:55.156Z,98404.16
2023-02-11T11:24:45.335Z,98392.56
2023-02-11T11:27:33.137Z,98393.06
2023-02-11T11:30:02.347Z,98400.28
2023-02-11T11:32:33.511Z,98401.16
2023-02-11T11:35:10.219Z,98398.19
2023-02-11T11:37:38.942Z,98392.25
2023-02-11T11:40:13.848Z,98395.44
2023-02-11T11:42:41.733Z,98398.66
2023-02-11T11:45:21.006Z,98402.50
2023-02-11T11:48:12.785Z,98404.38
2023-02-11T11:50:58.141Z,98395.84
2023-02-11T11:53:46.303Z,98399.91
2023-02-11T11:56:27.007Z,98401.78
2023-02-11T11:58:54.709Z,98407.38
2023-02-11T12:02:18.123Z,98420.41
2023-02-11T12:05:14.824Z,98426.47
2023-02-11T12:08:17.327Z,98426.69
2023-02-11T12:11:34.756Z,98417.03
2023-02-11T12:14:35.297Z,98416.19
2023-02-11T12:17:38.355Z,98416.19
2023-02-11T12:20:43.680Z,98420.84
2023-02-11T12:23:32.381Z,98442.16
2023-02-11T12:26:23.916Z,98441.72
2023-02-11T12:29:10.195Z,98449.63
2023-02-11T12:32:08.456Z,98442.38
2023-02-11T12:35:18.013Z,98434.31
2023-02-11T12:37:59.946Z,98416.00
2023-02-11T12:40:39.575Z,98435.94
2023-02-11T12:43:21.423Z,98428.44
2023-02-11T12:46:22.664Z,98417.38
2023-02-11T12:49:05.100Z,98414.53
2023-02-11T12:52:10.509Z,98416.97
2023-02-11T12:54:52.201Z,98416.56
2023-02-11T12:57:28.305Z,98425.44
2023-02-11T13:00:04.943Z,98415.16
2023-02-11T13:03:03.812Z,98415.59
2023-02-11T13:06:14.041Z,98411.13
2023-02-11T13:08:48.591Z,98410.50
2023-02-11T13:11:39.868Z,98405.50
2023-02-11T13:14:32.915Z,98402.84
2023-02-11T13:17:00.380Z,98405.44
2023-02-11T13:19:48.635Z,98400.63
2023-02-11T13:22:44.771Z,98400.59
2023-02-11T13:26:06.855Z,98407.75
2023-02-11T13:28:53.795Z,98399.75
2023-02-11T13:31:21.266Z,98415.00
2023-02-11T13:33:49.997Z,98393.84
2023-02-11T13:36:38.632Z,98391.06
2023-02-11T13:39:07.973Z,98368.53
2023-02-11T13:41:41.443Z,98357.53
2023-02-11T13:44:11.682Z,98350.78
2023-02-11T13:46:57.303Z,98346.84
2023-02-11T13:49:32.295Z,98343.59
2023-02-11T13:52:01.963Z,98357.00
2023-02-11T13:54:35.452Z,98353.03
2023-02-11T13:57:37.366Z,98335.09
2023-02-11T14:00:33.814Z,98341.91
2023-02-11T14:03:32.349Z,98354.16
2023-02-11T14:06:56.390Z,98356.41
2023-02-11T14:09:23.517Z,98339.56
2023-02-11T14:12:14.528Z,98341.13
2023-02-11T14:15:04.804Z,98332.34
2023-02-11T14:17:35.301Z,98316.59
2023-02-11T14:20:24.829Z,98292.72
2023-02-11T14:22:54.325Z,98286.34
2023-02-11T14:25:26.331Z,98295.91
2023-02-11T14:28:26.121Z,98301.03
2023-02-11T14:31:24.350Z,98301.84
2023-02-11T14:34:27.243Z,98310.47
2023-02-11T14:37:50.977Z,98306.41
2023-02-11T14:40:31.908Z,98323.94
2023-02-11T14:43:08.345Z,98322.28
2023-02-11T14:45:37.062Z,98329.69
2023-02-11T14:48:14.915Z,98335.97
2023-02-11T14:50:47.317Z,98334.53
2023-02-11T14:53:19.696Z,98345.44
2023-02-11T14:55:52.518Z,98355.06
2023-02-11T14:58:29.604Z,98350.25
2023-02-11T15:01:30.212Z,98355.47
2023-02-11T15:03:59.526Z,98346.59
2023-02-11T15:06:39.388Z,98339.13
2023-02-11T15:09:19.315Z,98342.94
2023-02-11T15:11:49.424Z,98341.63
2023-02-11T15:14:25.874Z,98353.41
2023-02-11T15:17:01.292Z,98352.84
2023-02-11T15:19:41.367Z,98358.09
2023-02-11T15:22:25.677Z,98345.78
2023-02-11T15:25:11.048Z,98349.00
2023-02-11T15:27:50.272Z,98345.41
2023-02-11T15:30:25.112Z,98333.75
2023-02-11T15:33:06.930Z,98347.56
2023-02-11T15:35:39.921Z,98341.59
2023-02-11T15:41:38.596Z,98347.38
2023-02-11T15:44:06.157Z,98353.94
2023-02-11T15:46:39.592Z,98366.88
2023-02-11T15:49:08.672Z,98372.22
2023-02-11T15:51:38.706Z,98392.69
2023-02-11T15:54:16.323Z,98393.38
2023-02-11T15:56:49.552Z,98391.09
2023-02-11T16:02:46.661Z,98392.25
2023-02-11T16:05:36.846Z,98413.19
2023-02-11T16:08:34.701Z,98401.47
2023-02-11T16:11:09.196Z,98410.38
2023-02-11T16:13:47.546Z,98411.59
2023-02-11T16:16:34.949Z,98417.59
2023-02-11T16:19:06.186Z,98423.78
2023-02-11T16:21:42.484Z,98420.63
2023-02-11T16:24:28.123Z,98420.06
2023-02-11T16:27:02.219Z,98429.25
2023-02-11T16:29:32.652Z,98424.75
2023-02-11T16:32:28.327Z,98421.16
2023-02-11T16:35:00.788Z,98416.59
2023-02-11T16:37:28.430Z,98420.00
2023-02-11T16:39:58.183Z,98422.50
2023-02-11T16:42:25.686Z,98414.84
2023-02-11T16:44:52.996Z,98414.97
2023-02-11T16:47:26.602Z,98413.91
2023-02-11T16:49:55.604Z,98410.22
2023-02-11T16:52:23.528Z,98431.47
2023-02-11T16:54:51.498Z,98426.00
2023-02-11T16:57:23.044Z,98431.53
2023-02-11T16:59:50.944Z,98430.75
2023-02-11T17:02:24.435Z,98422.63
2023-02-11T17:04:54.163Z,98416.84
2023-02-11T17:07:21.605Z,98414.56
2023-02-11T17:09:48.919Z,98418.13
2023-02-11T17:12:16.134Z,98423.44
2023-02-11T17:14:43.598Z,98425.66
2023-02-11T17:17:11.624Z,98434.56
2023-02-11T17:19:40.217Z,98429.75
2023-02-11T17:22:07.717Z,98423.88
2023-02-11T17:24:35.082Z,98425.53
2023-02-11T17:27:02.375Z,98424.94
2023-02-11T17:29:29.689Z,98428.97
2023-02-11T17:31:57.262Z,98432.91
2023-02-11T17:34:24.917Z,98442.03
2023-02-11T17:36:52.170Z,98437.22
2023-02-11T17:39:21.246Z,98440.03
2023-02-11T17:41:48.646Z,98436.03
2023-02-11T17:44:16.728Z,98434.72
2023-02-11T17:46:44.412Z,98444.69
2023-02-11T17:49:12.772Z,98439.72
2023-02-11T17:51:41.226Z,98453.94
2023-02-11T17:54:15.977Z,98449.53
2023-02-11T17:56:43.584Z,98448.84
2023-02-11T17:59:13.205Z,98441.22
2023-02-11T18:01:42.345Z,98440.13
2023-02-11T18:04:15.853Z,98436.78
2023-02-11T18:06:44.129Z,98435.81
2023-02-11T18:09:12.605Z,98435.50
2023-02-11T18:11:40.872Z,98443.19
2023-02-11T18:14:10.275Z,98435.50
2023-02-11T18:16:39.867Z,98448.91
2023-02-11T18:19:07.969Z,98439.53
2023-02-11T18:21:35.828Z,98437.69
2023-02-11T18:24:06.837Z,98427.59
2023-02-11T18:26:35.113Z,98424.56
2023-02-11T18:29:03.900Z,98434.31
2023-02-11T18:31:31.515Z,98428.50
2023-02-11T18:33:58.846Z,98427.69
2023-02-11T18:36:26.122Z,98423.50
2023-02-11T18:38:54.373Z,98423.78
2023-02-11T18:41:21.848Z,98434.78
2023-02-11T18:43:49.272Z,98435.00
2023-02-11T18:46:17.263Z,98437.41
2023-02-11T18:48:45.450Z,98445.28
2023-02-11T18:51:18.416Z,98443.13
2023-02-11T18:53:46.315Z,98449.25
2023-02-11T18:56:21.200Z,98457.44
2023-02-11T18:58:49.233Z,98440.56
2023-02-11T19:01:24.393Z,98446.81
2023-02-11T19:03:52.005Z,98449.91
2023-02-11T19:06:28.576Z,98451.53
2023-02-11T19:09:00.101Z,98448.47
2023-02-11T19:11:49.088Z,98441.41
2023-02-11T19:14:29.335Z,98453.56
2023-02-11T19:16:59.513Z,98458.44
2023-02-11T19:19:30.331Z,98452.00
2023-02-11T19:21:59.977Z,98453.78
2023-02-11T19:24:29.239Z,98459.31
2023-02-11T19:27:00.378Z,98456.13
2023-02-11T19:29:29.830Z,98466.25
2023-02-11T19:31:57.220Z,98459.13
2023-02-11T19:34:24.840Z,98459.94
2023-02-11T19:36:53.430Z,98469.81
2023-02-11T19:39:21.472Z,98475.47
2023-02-11T19:41:48.791Z,98470.56
2023-02-11T19:44:16.698Z,98461.88
2023-02-11T19:46:44.614Z,98458.97
2023-02-11T19:49:16.946Z,98469.03
2023-02-11T19:51:44.382Z,98467.63
2023-02-11T19:54:11.766Z,98476.66
2023-02-11T19:56:39.062Z,98475.19
2023-02-11T19:59:09.003Z,98476.88
2023-02-11T20:01:37.152Z,98471.94
2023-02-11T20:04:04.858Z,98473.06
2023-02-11T20:06:34.501Z,98468.06
2023-02-11T20:09:06.927Z,98477.78
2023-02-11T20:11:35.206Z,98483.38
2023-02-11T20:14:03.703Z,98471.09
2023-02-11T20:16:47.046Z,98466.38
2023-02-11T20:19:21.815Z,98473.13
2023-02-11T20:21:52.652Z,98479.59
2023-02-11T20:24:20.167Z,98483.47
2023-02-11T20:26:48.692Z,98478.56
2023-02-11T20:29:17.945Z,98473.72
2023-02-11T20:31:45.660Z,98472.94
2023-02-11T20:34:13.084Z,98476.09
2023-02-11T20:36:41.038Z,98471.94
2023-02-11T20:39:10.595Z,98473.94
2023-02-11T20:41:41.498Z,98478.31
2023-02-11T20:44:10.984Z,98469.28
2023-02-11T20:46:46.031Z,98479.03
2023-02-11T20:49:19.433Z,98475.75
2023-02-11T20:51:47.774Z,98474.81
2023-02-11T20:54:18.564Z,98484.31
2023-02-11T20:56:48.090Z,98487.81
2023-02-11T20:59:16.982Z,98482.72
2023-02-11T21:01:53.494Z,98481.59
2023-02-11T21:04:25.635Z,98476.38
2023-02-11T21:06:56.880Z,98476.81
2023-02-11T21:09:28.118Z,98486.13
2023-02-11T21:11:55.568Z,98480.88
2023-02-11T21:14:24.834Z,98473.47
2023-02-11T21:16:53.346Z,98485.72
2023-02-11T21:19:21.427Z,98483.41
2023-02-11T21:21:49.273Z,98492.84
2023-02-11T21:24:16.605Z,98500.47
2023-02-11T21:26:44.013Z,98500.66
2023-02-11T21:29:11.963Z,98504.72
2023-02-11T21:31:40.123Z,98505.09
2023-02-11T21:34:08.043Z,98495.16
2023-02-11T21:36:35.441Z,98510.66
2023-02-11T21:39:04.065Z,98517.13
2023-02-11T21:41:31.669Z,98516.78
2023-02-11T21:43:58.989Z,98530.44
2023-02-11T21:46:27.403Z,98521.78
2023-02-11T21:48:54.665Z,98528.84
2023-02-11T21:51:26.498Z,98524.63
2023-02-11T21:53:59.143Z,98537.06
2023-02-11T21:56:28.347Z,98538.66
2023-02-11T21:58:58.193Z,98528.72
2023-02-11T22:01:30.280Z,98532.81
2023-02-11T22:03:58.158Z,98534.78
2023-02-11T22:06:31.124Z,98541.50
2023-02-11T22:09:01.778Z,98544.16
2023-02-11T22:11:29.167Z,98558.19
2023-02-11T22:13:57.858Z,98558.75
2023-02-11T22:16:27.016Z,98566.56
2023-02-11T22:18:56.128Z,98571.88
2023-02-11T22:21:23.591Z,98560.78
2023-02-11T22:23:52.020Z,98559.94
2023-02-11T22:26:22.713Z,98568.63
2023-02-11T22:28:50.809Z,98563.81
2023-02-11T22:31:27.181Z,98565.03
2023-02-11T22:33:55.398Z,98573.13
2023-02-11T22:36:27.071Z,98579.94
2023-02-11T22:38:55.606Z,98580.31
2023-02-11T22:41:24.585Z,98579.63
2023-02-11T22:43:51.922Z,98582.94
2023-02-11T22:46:20.166Z,98590.31
2023-02-11T22:48:48.476Z,98589.34
2023-02-11T22:51:23.064Z,98586.69
2023-02-11T22:54:02.291Z,98591.13
2023-02-11T22:56:31.531Z,98596.16
2023-02-11T22:59:01.534Z,98593.59
2023-02-11T23:01:30.048Z,98599.25
2023-02-11T23:03:58.692Z,98593.06
2023-02-11T23:06:25.940Z,98595.72
2023-02-11T23:08:53.515Z,98594.53
2023-02-11T23:11:24.879Z,98597.59
2023-02-11T23:13:53.520Z,98603.78
2023-02-11T23:16:39.980Z,98597.31
2023-02-11T23:19:09.078Z,98598.16
2023-02-11T23:21:38.955Z,98605.81
2023-02-11T23:24:12.101Z,98605.81
2023-02-11T23:26:41.297Z,98602.13
2023-02-11T23:29:17.278Z,98607.88
2023-02-11T23:31:46.530Z,98605.44
2023-02-11T23:34:23.898Z,98607.50
2023-02-11T23:36:52.783Z,98607.84
2023-02-11T23:39:20.577Z,98610.72
2023-02-11T23:41:47.888Z,98610.69
2023-02-11T23:44:15.128Z,98603.75
2023-02-11T23:46:42.424Z,98612.75
2023-02-11T23:49:09.961Z,98605.09
2023-02-11T23:51:37.160Z,98603.47
2023-02-11T23:54:04.421Z,98610.31
2023-02-11T23:56:31.788Z,98616.53
2023-02-11T23:58:59.485Z,98601.63
